createdAt,value
2019-04-03T00:02:15.114Z,73.71
2019-04-03T00:04:47.688Z,74.04
2019-04-03T00:07:20.268Z,73.98
2019-04-03T00:09:52.631Z,73.84
2019-04-03T00:12:25.163Z,73.96
2019-04-03T00:14:57.414Z,74.55
2019-04-03T00:17:29.834Z,74.25
2019-04-03T00:20:05.242Z,74.60
2019-04-03T00:22:37.501Z,74.68
2019-04-03T00:25:09.745Z,74.16
2019-04-03T00:27:42.040Z,74.16
2019-04-03T00:30:14.453Z,74.25
2019-04-03T00:32:46.899Z,74.46
2019-04-03T00:35:19.258Z,74.63
2019-04-03T00:37:53.746Z,75.05
2019-04-03T00:40:25.613Z,75.31
2019-04-03T00:42:58.156Z,75.45
2019-04-03T00:45:30.462Z,75.53
2019-04-03T00:48:02.929Z,75.26
2019-04-03T00:50:35.350Z,75.16
2019-04-03T00:53:07.607Z,75.11
2019-04-03T00:55:39.854Z,74.06
2019-04-03T00:58:12.073Z,73.13
2019-04-03T01:00:44.292Z,72.70
2019-04-03T01:03:16.526Z,72.40
2019-04-03T01:05:49.030Z,72.32
2019-04-03T01:08:21.362Z,72.81
2019-04-03T01:10:54.748Z,73.19
2019-04-03T01:13:27.150Z,73.62
2019-04-03T01:16:02.128Z,74.27
2019-04-03T01:18:35.274Z,74.49
2019-04-03T01:21:07.630Z,74.62
2019-04-03T01:23:41.483Z,74.65
2019-04-03T01:26:13.841Z,74.95
2019-04-03T01:28:45.892Z,75.25
2019-04-03T01:31:18.325Z,75.54
2019-04-03T01:33:50.595Z,75.96
2019-04-03T01:36:22.822Z,76.33
2019-04-03T01:38:57.506Z,76.66
2019-04-03T01:41:29.875Z,76.57
2019-04-03T01:44:02.098Z,76.62
2019-04-03T01:46:34.540Z,76.57
2019-04-03T01:49:07.071Z,76.56
2019-04-03T01:51:39.440Z,76.87
2019-04-03T01:54:11.597Z,77.06
2019-04-03T01:56:43.885Z,77.11
2019-04-03T01:59:16.181Z,76.81
2019-04-03T02:01:48.596Z,76.50
2019-04-03T02:04:22.470Z,76.70
2019-04-03T02:06:54.901Z,76.93
2019-04-03T02:09:27.345Z,76.94
2019-04-03T02:11:59.745Z,76.82
2019-04-03T02:14:35.271Z,76.87
2019-04-03T02:17:07.659Z,76.77
2019-04-03T02:19:39.806Z,76.46
2019-04-03T02:22:12.214Z,76.63
2019-04-03T02:24:44.580Z,76.66
2019-04-03T02:27:16.821Z,76.38
2019-04-03T02:29:49.059Z,76.62
2019-04-03T02:32:23.817Z,76.62
2019-04-03T02:34:55.392Z,76.82
2019-04-03T02:37:27.680Z,76.92
2019-04-03T02:40:00.560Z,76.99
2019-04-03T02:42:33.162Z,76.78
2019-04-03T02:45:07.020Z,76.89
2019-04-03T02:47:39.302Z,76.89
2019-04-03T02:50:13.902Z,76.57
2019-04-03T02:52:45.359Z,76.33
2019-04-03T02:55:17.770Z,76.46
2019-04-03T02:57:50.380Z,76.23
2019-04-03T03:00:22.795Z,76.13
2019-04-03T03:02:55.143Z,76.19
2019-04-03T03:05:28.799Z,76.04
2019-04-03T03:08:01.646Z,76.20
2019-04-03T03:10:33.887Z,76.33
2019-04-03T03:13:06.159Z,76.43
2019-04-03T03:15:38.370Z,76.72
2019-04-03T03:18:10.654Z,76.75
2019-04-03T03:20:42.968Z,76.83
2019-04-03T03:23:15.274Z,76.93
2019-04-03T03:25:47.877Z,77.18
2019-04-03T03:28:20.450Z,77.17
2019-04-03T03:31:00.922Z,77.30
2019-04-03T03:33:35.558Z,77.46
2019-04-03T03:36:01.192Z,77.29
2019-04-03T03:38:33.945Z,77.53
2019-04-03T03:41:06.213Z,77.70
2019-04-03T03:43:39.074Z,77.38
2019-04-03T03:46:11.481Z,77.36
2019-04-03T03:48:45.039Z,77.15
2019-04-03T03:51:17.707Z,77.25
2019-04-03T03:53:49.963Z,77.43
2019-04-03T03:56:22.271Z,77.18
2019-04-03T03:58:54.526Z,77.29
2019-04-03T04:01:30.196Z,77.50
2019-04-03T04:04:01.077Z,77.46
2019-04-03T04:06:36.261Z,77.64
2019-04-03T04:09:08.380Z,77.38
2019-04-03T04:11:41.083Z,77.31
2019-04-03T04:14:13.395Z,77.72
2019-04-03T04:16:45.687Z,77.28
2019-04-03T04:19:17.970Z,76.82
2019-04-03T04:21:50.487Z,77.03
2019-04-03T04:24:22.879Z,77.13
2019-04-03T04:26:55.253Z,77.08
2019-04-03T04:29:27.885Z,76.78
2019-04-03T04:32:00.541Z,76.78
2019-04-03T04:34:32.787Z,76.54
2019-04-03T04:37:05.093Z,76.33
2019-04-03T04:39:37.462Z,76.27
2019-04-03T04:42:09.743Z,76.21
2019-04-03T04:44:41.838Z,76.45
2019-04-03T04:47:15.291Z,76.59
2019-04-03T04:49:47.986Z,76.63
2019-04-03T04:52:20.505Z,76.63
2019-04-03T04:54:52.761Z,76.96
2019-04-03T04:57:25.168Z,77.07
2019-04-03T04:59:57.526Z,76.97
2019-04-03T05:02:30.192Z,77.22
2019-04-03T05:05:02.522Z,77.24
2019-04-03T05:07:34.815Z,77.49
2019-04-03T05:10:07.126Z,77.71
2019-04-03T05:12:44.186Z,77.58
2019-04-03T05:15:13.371Z,77.94
2019-04-03T05:17:45.565Z,78.11
2019-04-03T05:20:20.199Z,78.08
2019-04-03T05:22:54.542Z,78.15
2019-04-03T05:25:27.875Z,78.12
2019-04-03T05:28:01.074Z,77.97
2019-04-03T05:30:33.498Z,77.80
2019-04-03T05:33:07.484Z,77.80
2019-04-03T05:35:41.069Z,77.87
2019-04-03T05:38:13.443Z,77.96
2019-04-03T05:40:45.566Z,77.90
2019-04-03T05:43:18.077Z,77.47
2019-04-03T05:45:51.475Z,77.57
2019-04-03T05:48:23.764Z,77.52
2019-04-03T05:50:58.165Z,77.34
2019-04-03T05:53:30.132Z,77.27
2019-04-03T05:56:02.348Z,77.03
2019-04-03T05:58:34.670Z,76.71
2019-04-03T06:01:08.783Z,76.60
2019-04-03T06:03:44.829Z,76.35
2019-04-03T06:06:15.588Z,76.58
2019-04-03T06:08:50.631Z,76.40
2019-04-03T06:11:22.219Z,76.36
2019-04-03T06:13:54.593Z,76.23
2019-04-03T06:16:26.836Z,76.05
2019-04-03T06:18:59.748Z,76.05
2019-04-03T06:21:32.287Z,76.13
2019-04-03T06:24:04.543Z,76.27
2019-04-03T06:26:37.790Z,76.07
2019-04-03T06:29:10.947Z,76.10
2019-04-03T06:31:43.271Z,75.61
2019-04-03T06:34:15.623Z,75.33
2019-04-03T06:36:49.664Z,75.43
2019-04-03T06:39:23.472Z,75.42
2019-04-03T06:41:55.916Z,75.29
2019-04-03T06:44:28.337Z,75.07
2019-04-03T06:47:01.498Z,74.85
2019-04-03T06:49:34.226Z,74.86
2019-04-03T06:52:06.845Z,74.82
2019-04-03T06:54:39.108Z,75.03
2019-04-03T06:57:11.807Z,74.97
2019-04-03T06:59:47.897Z,74.91
2019-04-03T07:02:19.958Z,74.48
2019-04-03T07:04:52.664Z,73.60
2019-04-03T07:07:32.972Z,73.48
2019-04-03T07:09:58.776Z,73.82
2019-04-03T07:12:32.161Z,73.44
2019-04-03T07:15:04.550Z,72.89
2019-04-03T07:17:37.141Z,72.16
2019-04-03T07:20:14.483Z,72.04
2019-04-03T07:22:43.477Z,70.89
2019-04-03T07:25:16.451Z,70.81
2019-04-03T07:27:48.980Z,70.07
2019-04-03T07:30:21.782Z,70.42
2019-04-03T07:32:57.152Z,70.00
2019-04-03T07:35:28.719Z,69.61
2019-04-03T07:38:01.180Z,69.67
2019-04-03T07:40:33.461Z,68.80
2019-04-03T07:43:06.091Z,67.96
2019-04-03T07:45:38.585Z,67.60
2019-04-03T07:48:10.905Z,66.85
2019-04-03T07:50:44.929Z,66.87
2019-04-03T07:53:19.283Z,67.30
2019-04-03T07:55:51.608Z,66.29
2019-04-03T07:58:25.391Z,66.33
2019-04-03T08:00:58.096Z,65.32
2019-04-03T08:03:30.422Z,65.12
2019-04-03T08:06:03.538Z,64.80
2019-04-03T08:08:37.120Z,64.02
2019-04-03T08:11:09.565Z,64.10
2019-04-03T08:13:42.234Z,63.95
2019-04-03T08:16:15.808Z,64.90
2019-04-03T08:18:49.934Z,65.68
2019-04-03T08:21:23.151Z,66.18
2019-04-03T08:23:55.510Z,65.29
2019-04-03T08:26:27.968Z,65.50
2019-04-03T08:29:01.820Z,65.14
2019-04-03T08:31:34.770Z,64.98
2019-04-03T08:34:15.489Z,64.19
2019-04-03T08:36:41.114Z,63.76
2019-04-03T08:39:13.704Z,62.27
2019-04-03T08:41:47.564Z,62.46
2019-04-03T08:44:20.265Z,62.38
2019-04-03T08:46:52.946Z,60.49
2019-04-03T08:49:26.330Z,60.40
2019-04-03T08:51:59.271Z,58.41
2019-04-03T08:54:31.964Z,57.95
2019-04-03T08:57:04.904Z,57.97
2019-04-03T08:59:37.208Z,57.53
2019-04-03T09:02:12.771Z,58.60
2019-04-03T09:04:43.791Z,59.42
2019-04-03T09:07:16.183Z,59.96
2019-04-03T09:09:50.387Z,60.52
2019-04-03T09:12:22.730Z,60.12
2019-04-03T09:14:57.053Z,59.81
2019-04-03T09:17:29.064Z,60.91
2019-04-03T09:20:02.460Z,60.60
2019-04-03T09:22:34.806Z,59.53
2019-04-03T09:25:07.098Z,59.12
2019-04-03T09:27:40.712Z,58.91
2019-04-03T09:30:15.447Z,59.24
2019-04-03T09:32:47.164Z,59.26
2019-04-03T09:35:19.815Z,59.73
2019-04-03T09:37:52.462Z,59.18
2019-04-03T09:40:24.877Z,59.15
2019-04-03T09:42:57.204Z,58.63
2019-04-03T09:45:29.544Z,57.40
2019-04-03T09:48:04.588Z,56.00
2019-04-03T09:50:36.071Z,55.20
2019-04-03T09:53:08.681Z,55.09
2019-04-03T09:55:40.936Z,55.61
2019-04-03T09:58:13.270Z,55.48
2019-04-03T10:00:45.626Z,54.33
2019-04-03T10:03:18.177Z,54.57
2019-04-03T10:05:50.831Z,52.58
2019-04-03T10:08:23.210Z,52.57
2019-04-03T10:10:55.886Z,52.76
2019-04-03T10:13:28.128Z,51.88
2019-04-03T10:16:03.258Z,51.86
2019-04-03T10:18:39.091Z,50.74
2019-04-03T10:21:12.518Z,51.41
2019-04-03T10:23:44.848Z,51.45
2019-04-03T10:26:17.087Z,52.02
2019-04-03T10:28:49.354Z,52.12
2019-04-03T10:31:23.795Z,52.53
2019-04-03T10:33:55.608Z,51.80
2019-04-03T10:36:28.891Z,51.83
2019-04-03T10:39:01.221Z,51.21
2019-04-03T10:41:34.767Z,51.96
2019-04-03T10:44:09.295Z,51.75
2019-04-03T10:46:41.167Z,52.25
2019-04-03T10:49:13.752Z,52.91
2019-04-03T10:51:46.092Z,51.90
2019-04-03T10:54:18.382Z,51.68
2019-04-03T10:56:51.041Z,51.87
2019-04-03T10:59:23.709Z,51.45
2019-04-03T11:01:56.099Z,50.34
2019-04-03T11:04:28.815Z,49.31
2019-04-03T11:07:01.202Z,47.82
2019-04-03T11:09:33.420Z,47.06
2019-04-03T11:12:06.221Z,47.66
2019-04-03T11:14:40.146Z,46.22
2019-04-03T11:17:13.050Z,45.89
2019-04-03T11:19:45.648Z,45.78
2019-04-03T11:22:18.089Z,46.37
2019-04-03T11:24:50.846Z,46.79
2019-04-03T11:27:29.063Z,46.96
2019-04-03T11:29:57.234Z,46.54
2019-04-03T11:32:29.686Z,45.33
2019-04-03T11:35:02.171Z,46.03
2019-04-03T11:37:35.094Z,45.80
2019-04-03T11:40:07.874Z,45.64
2019-04-03T11:42:40.265Z,46.75
2019-04-03T11:45:12.653Z,47.69
2019-04-03T11:47:46.186Z,47.45
2019-04-03T11:50:18.634Z,48.71
2019-04-03T11:52:52.168Z,48.65
2019-04-03T11:55:24.578Z,48.35
2019-04-03T11:57:57.037Z,47.58
2019-04-03T12:00:29.348Z,48.25
2019-04-03T12:03:01.652Z,48.27
2019-04-03T12:05:33.924Z,44.96
2019-04-03T12:08:07.469Z,42.51
2019-04-03T12:10:40.041Z,39.16
2019-04-03T12:13:14.241Z,36.91
2019-04-03T12:15:48.019Z,37.06
2019-04-03T12:18:20.708Z,37.72
2019-04-03T12:20:53.522Z,39.43
2019-04-03T12:23:26.838Z,41.92
2019-04-03T12:26:01.671Z,43.89
2019-04-03T12:28:34.118Z,47.38
2019-04-03T12:31:06.389Z,50.54
2019-04-03T12:33:46.659Z,53.85
2019-04-03T12:36:15.941Z,57.67
2019-04-03T12:38:48.017Z,60.11
2019-04-03T12:41:20.297Z,62.20
2019-04-03T12:43:53.487Z,64.66
2019-04-03T12:46:25.798Z,66.32
2019-04-03T12:48:58.086Z,67.41
2019-04-03T12:51:31.534Z,67.54
2019-04-03T12:54:04.346Z,68.09
2019-04-03T12:56:37.015Z,69.17
2019-04-03T12:59:09.672Z,68.58
2019-04-03T13:01:43.433Z,67.69
2019-04-03T13:04:15.680Z,66.72
2019-04-03T13:06:47.919Z,60.11
2019-04-03T13:09:20.701Z,56.34
2019-04-03T13:11:53.330Z,48.71
2019-04-03T13:14:27.199Z,50.79
2019-04-03T13:16:59.575Z,49.42
2019-04-03T13:19:33.464Z,51.18
2019-04-03T13:22:05.993Z,48.21
2019-04-03T13:24:38.356Z,42.82
2019-04-03T13:27:10.501Z,40.87
2019-04-03T13:29:42.876Z,36.96
2019-04-03T13:32:17.280Z,36.19
2019-04-03T13:34:50.405Z,34.70
2019-04-03T13:37:23.892Z,35.28
2019-04-03T13:40:00.205Z,31.98
2019-04-03T13:42:31.899Z,33.00
2019-04-03T13:45:04.888Z,34.46
2019-04-03T13:47:39.878Z,34.83
2019-04-03T13:50:11.683Z,37.36
2019-04-03T13:52:48.432Z,40.23
2019-04-03T13:55:18.040Z,42.64
2019-04-03T13:57:51.376Z,45.06
2019-04-03T14:00:24.866Z,47.37
2019-04-03T14:02:58.246Z,48.50
2019-04-03T14:05:32.955Z,48.57
2019-04-03T14:08:07.122Z,49.88
2019-04-03T14:10:40.001Z,48.71
2019-04-03T14:13:12.983Z,46.26
2019-04-03T14:15:45.685Z,42.67
2019-04-03T14:18:18.029Z,41.37
2019-04-03T14:20:51.965Z,43.11
2019-04-03T14:23:24.795Z,42.61
2019-04-03T14:26:04.063Z,40.78
2019-04-03T14:28:35.436Z,40.17
2019-04-03T14:31:08.538Z,40.82
2019-04-03T14:33:45.127Z,38.39
2019-04-03T14:36:18.362Z,37.44
2019-04-03T14:38:49.112Z,35.50
2019-04-03T14:41:21.376Z,35.34
2019-04-03T14:43:54.199Z,32.74
2019-04-03T14:46:26.961Z,33.12
2019-04-03T14:49:02.572Z,31.97
2019-04-03T14:51:33.727Z,28.73
2019-04-03T14:54:08.424Z,29.04
2019-04-03T14:56:40.451Z,28.17
2019-04-03T14:59:14.055Z,30.69
2019-04-03T15:01:46.769Z,31.96
2019-04-03T15:04:19.001Z,35.62
2019-04-03T15:07:01.656Z,36.62
2019-04-03T15:09:26.990Z,34.76
2019-04-03T15:11:59.517Z,35.22
2019-04-03T15:14:31.914Z,34.73
2019-04-03T15:17:05.238Z,37.20
2019-04-03T15:19:38.443Z,37.09
2019-04-03T15:22:11.129Z,38.22
2019-04-03T15:24:44.465Z,38.93
2019-04-03T15:27:17.032Z,39.69
2019-04-03T15:29:50.078Z,40.45
2019-04-03T15:32:22.868Z,43.18
2019-04-03T15:34:58.700Z,42.93
2019-04-03T15:37:29.717Z,45.24
2019-04-03T15:40:02.328Z,46.18
2019-04-03T15:42:38.481Z,46.45
2019-04-03T15:45:09.329Z,47.26
2019-04-03T15:47:45.822Z,49.00
2019-04-03T15:50:17.114Z,47.69
2019-04-03T15:52:51.256Z,48.45
2019-04-03T15:55:25.114Z,48.42
2019-04-03T15:57:58.295Z,49.21
2019-04-03T16:00:30.627Z,47.34
2019-04-03T16:03:03.353Z,49.97
2019-04-03T16:05:37.137Z,54.08
2019-04-03T16:08:10.018Z,57.07
2019-04-03T16:10:44.180Z,59.82
2019-04-03T16:13:16.744Z,62.43
2019-04-03T16:15:48.967Z,64.11
2019-04-03T16:18:21.800Z,65.57
2019-04-03T16:20:54.133Z,67.64
2019-04-03T16:23:27.241Z,69.02
2019-04-03T16:26:00.312Z,70.06
2019-04-03T16:28:34.073Z,68.59
2019-04-03T16:31:09.235Z,67.40
2019-04-03T16:33:43.001Z,68.91
2019-04-03T16:36:25.083Z,68.26
2019-04-03T16:39:01.105Z,65.88
2019-04-03T16:41:37.667Z,65.48
2019-04-03T16:44:09.341Z,63.97
2019-04-03T16:46:42.142Z,65.19
2019-04-03T16:49:14.467Z,63.71
2019-04-03T16:51:46.840Z,63.98
2019-04-03T16:54:19.157Z,63.68
2019-04-03T16:56:51.831Z,65.48
2019-04-03T16:59:24.271Z,66.28
2019-04-03T17:01:56.886Z,66.37
2019-04-03T17:04:29.116Z,65.91
2019-04-03T17:07:01.808Z,65.54
2019-04-03T17:09:37.469Z,66.73
2019-04-03T17:12:09.022Z,65.29
2019-04-03T17:14:43.580Z,65.89
2019-04-03T17:17:19.688Z,65.40
2019-04-03T17:19:53.949Z,66.59
2019-04-03T17:22:29.871Z,64.48
2019-04-03T17:25:02.753Z,65.63
2019-04-03T17:27:35.111Z,65.67
2019-04-03T17:30:07.626Z,65.86
2019-04-03T17:32:40.079Z,67.69
2019-04-03T17:35:15.063Z,66.60
2019-04-03T17:37:48.728Z,65.17
2019-04-03T17:40:21.348Z,66.80
2019-04-03T17:42:53.700Z,66.61
2019-04-03T17:45:35.610Z,67.99
2019-04-03T17:48:11.019Z,67.72
2019-04-03T17:50:47.536Z,66.50
2019-04-03T17:53:21.039Z,67.40
2019-04-03T17:55:53.421Z,64.82
2019-04-03T17:58:25.778Z,66.40
2019-04-03T18:00:58.055Z,67.19
2019-04-03T18:03:30.535Z,68.40
2019-04-03T18:06:03.290Z,68.41
2019-04-03T18:08:35.860Z,70.26
2019-04-03T18:11:08.324Z,70.76
2019-04-03T18:13:40.629Z,71.28
2019-04-03T18:16:13.451Z,71.61
2019-04-03T18:18:45.880Z,72.38
2019-04-03T18:21:18.395Z,72.34
2019-04-03T18:23:52.873Z,72.68
2019-04-03T18:26:25.052Z,72.59
2019-04-03T18:28:57.085Z,72.15
2019-04-03T18:31:29.340Z,73.17
2019-04-03T18:34:01.656Z,73.73
2019-04-03T18:36:34.339Z,72.35
2019-04-03T18:39:07.854Z,71.35
2019-04-03T18:41:40.822Z,72.81
2019-04-03T18:44:22.056Z,72.90
2019-04-03T18:46:50.052Z,72.19
2019-04-03T18:49:21.788Z,71.76
2019-04-03T18:51:54.174Z,71.78
2019-04-03T18:54:26.691Z,72.35
2019-04-03T18:56:59.678Z,72.59
2019-04-03T18:59:32.084Z,72.54
2019-04-03T19:02:06.410Z,72.23
2019-04-03T19:04:38.775Z,72.59
2019-04-03T19:07:11.123Z,73.12
2019-04-03T19:09:43.341Z,71.78
2019-04-03T19:12:15.747Z,71.83
2019-04-03T19:14:48.069Z,72.47
2019-04-03T19:17:20.379Z,73.48
2019-04-03T19:19:55.656Z,72.33
2019-04-03T19:22:26.758Z,71.82
2019-04-03T19:24:59.358Z,71.76
2019-04-03T19:27:33.074Z,71.78
2019-04-03T19:30:07.649Z,72.62
2019-04-03T19:32:42.763Z,72.02
2019-04-03T19:35:14.350Z,70.97
2019-04-03T19:37:46.671Z,71.28
2019-04-03T19:40:18.942Z,72.16
2019-04-03T19:42:51.304Z,73.01
2019-04-03T19:45:23.762Z,72.73
2019-04-03T19:47:56.341Z,71.95
2019-04-03T19:50:31.465Z,72.77
2019-04-03T19:53:02.632Z,72.75
2019-04-03T19:55:35.305Z,72.61
2019-04-03T19:58:07.689Z,72.50
2019-04-03T20:00:40.010Z,71.17
2019-04-03T20:03:14.076Z,71.68
2019-04-03T20:05:50.081Z,71.76
2019-04-03T20:08:20.559Z,71.08
2019-04-03T20:10:53.180Z,71.22
2019-04-03T20:13:28.046Z,71.15
2019-04-03T20:15:59.939Z,71.02
2019-04-03T20:18:32.505Z,70.83
2019-04-03T20:21:04.756Z,71.41
2019-04-03T20:23:37.262Z,71.83
2019-04-03T20:26:09.577Z,71.66
2019-04-03T20:28:41.900Z,72.24
2019-04-03T20:31:14.104Z,71.58
2019-04-03T20:33:46.557Z,71.20
2019-04-03T20:36:20.361Z,70.91
2019-04-03T20:38:53.011Z,71.40
2019-04-03T20:41:25.359Z,70.54
2019-04-03T20:43:57.681Z,69.98
2019-04-03T20:46:30.005Z,69.87
2019-04-03T20:49:03.061Z,69.76
2019-04-03T20:51:35.665Z,69.67
2019-04-03T20:54:07.881Z,69.29
2019-04-03T20:56:40.133Z,69.17
2019-04-03T20:59:12.410Z,69.73
2019-04-03T21:01:44.714Z,70.10
2019-04-03T21:04:16.999Z,70.44
2019-04-03T21:06:51.580Z,70.46
2019-04-03T21:09:23.656Z,70.48
2019-04-03T21:11:55.919Z,71.37
2019-04-03T21:14:28.553Z,70.20
2019-04-03T21:17:00.994Z,70.42
2019-04-03T21:19:33.545Z,70.42
2019-04-03T21:22:05.787Z,70.74
2019-04-03T21:24:38.198Z,71.51
2019-04-03T21:27:10.563Z,72.38
2019-04-03T21:29:42.842Z,71.83
2019-04-03T21:32:15.297Z,72.32
2019-04-03T21:34:47.997Z,72.93
2019-04-03T21:37:20.579Z,73.27
2019-04-03T21:39:53.086Z,73.83
2019-04-03T21:42:26.878Z,73.70
2019-04-03T21:45:02.540Z,73.59
2019-04-03T21:47:34.893Z,73.29
2019-04-03T21:50:07.233Z,72.75
2019-04-03T21:52:39.608Z,72.66
2019-04-03T21:55:12.085Z,72.85
2019-04-03T21:57:44.302Z,73.00
2019-04-03T22:00:18.559Z,73.54
2019-04-03T22:02:52.430Z,73.05
2019-04-03T22:05:25.350Z,73.38
2019-04-03T22:07:58.255Z,73.15
2019-04-03T22:10:32.998Z,74.13
2019-04-03T22:13:05.889Z,74.52
2019-04-03T22:15:39.446Z,74.90
2019-04-03T22:18:11.651Z,74.98
2019-04-03T22:20:46.003Z,75.55
2019-04-03T22:23:18.835Z,75.90
2019-04-03T22:25:51.553Z,76.11
2019-04-03T22:28:23.835Z,76.25
2019-04-03T22:30:56.155Z,76.13
2019-04-03T22:33:28.322Z,76.37
2019-04-03T22:36:01.256Z,76.69
2019-04-03T22:38:37.114Z,76.26
2019-04-03T22:41:12.264Z,76.10
2019-04-03T22:43:44.165Z,76.28
2019-04-03T22:46:17.705Z,76.28
2019-04-03T22:48:50.238Z,76.21
2019-04-03T22:51:22.547Z,76.52
2019-04-03T22:53:54.972Z,76.73
2019-04-03T22:56:27.417Z,76.99
2019-04-03T22:58:59.833Z,76.94
2019-04-03T23:01:32.311Z,76.96
2019-04-03T23:04:05.345Z,76.96
2019-04-03T23:06:38.320Z,77.15
2019-04-03T23:09:10.758Z,77.57
2019-04-03T23:11:42.887Z,77.38
2019-04-03T23:14:15.111Z,77.29
2019-04-03T23:16:47.461Z,77.66
2019-04-03T23:19:19.737Z,77.79
2019-04-03T23:21:54.845Z,77.99
2019-04-03T23:24:28.891Z,78.05
2019-04-03T23:27:02.712Z,78.20
2019-04-03T23:29:36.683Z,78.24
2019-04-03T23:32:09.335Z,78.46
2019-04-03T23:34:41.563Z,78.52
2019-04-03T23:37:13.815Z,78.48
2019-04-03T23:39:46.085Z,78.38
2019-04-03T23:42:18.484Z,78.28
2019-04-03T23:44:50.902Z,78.24
2019-04-03T23:47:23.128Z,78.24
2019-04-03T23:49:55.376Z,78.50
2019-04-03T23:52:28.042Z,78.77
2019-04-03T23:55:04.537Z,78.89
2019-04-03T23:57:35.884Z,78.95
